createdAt,value
2023-04-14T00:00:42.400Z,7.07
2023-04-14T00:05:51.543Z,10.75
2023-04-14T00:08:18.582Z,7.13
2023-04-14T00:10:45.641Z,6.93
2023-04-14T00:13:12.706Z,10.98
2023-04-14T00:15:43.583Z,8.73
2023-04-14T00:18:21.265Z,6.43
2023-04-14T00:20:50.206Z,8.43
2023-04-14T00:23:18.382Z,5.43
2023-04-14T00:25:45.429Z,6.85
2023-04-14T00:28:12.533Z,8.95
2023-04-14T00:30:39.597Z,10.02
2023-04-14T00:41:43.310Z,13.05
2023-04-14T00:44:10.453Z,6.10
2023-04-14T00:46:37.559Z,6.95
2023-04-14T00:49:05.086Z,8.60
2023-04-14T00:51:32.373Z,9.80
2023-04-14T00:53:59.453Z,7.60
2023-04-14T00:56:26.523Z,7.65
2023-04-14T00:58:54.156Z,6.40
2023-04-14T01:01:21.397Z,5.68
2023-04-14T01:03:55.335Z,8.55
2023-04-14T01:06:22.677Z,6.25
2023-04-14T01:08:50.766Z,4.95
2023-04-14T01:11:20.607Z,8.63
2023-04-14T01:13:58.555Z,8.83
2023-04-14T01:16:29.501Z,9.82
2023-04-14T01:19:03.112Z,7.85
2023-04-14T01:21:35.442Z,7.53
2023-04-14T01:24:09.147Z,6.70
2023-04-14T01:26:36.540Z,8.45
2023-04-14T01:29:03.723Z,5.93
2023-04-14T01:31:32.037Z,7.15
2023-04-14T01:36:33.873Z,8.85
2023-04-14T01:39:07.188Z,5.15
2023-04-14T01:41:34.988Z,6.68
2023-04-14T01:44:02.477Z,8.10
2023-04-14T01:46:29.506Z,7.95
2023-04-14T01:48:57.031Z,6.93
2023-04-14T01:51:24.762Z,4.93
2023-04-14T01:53:58.437Z,12.10
2023-04-14T01:56:26.637Z,9.93
2023-04-14T01:58:55.501Z,10.88
2023-04-14T02:01:22.858Z,9.65
2023-04-14T02:03:52.539Z,7.15
2023-04-14T02:06:21.541Z,8.60
2023-04-14T02:11:25.037Z,8.88
2023-04-14T02:13:53.341Z,10.48
2023-04-14T02:16:20.634Z,8.50
2023-04-14T02:18:48.436Z,7.57
2023-04-14T02:21:17.221Z,8.00
2023-04-14T02:23:44.400Z,8.07
2023-04-14T02:26:13.721Z,10.38
2023-04-14T02:28:43.916Z,7.85
2023-04-14T02:31:13.200Z,9.95
2023-04-14T02:33:40.584Z,7.82
2023-04-14T02:36:22.876Z,8.57
2023-04-14T02:38:55.836Z,11.73
2023-04-14T02:44:15.171Z,7.15
2023-04-14T02:46:43.180Z,6.43
2023-04-14T02:49:13.268Z,10.90
2023-04-14T02:51:41.327Z,7.30
2023-04-14T02:54:08.804Z,6.85
2023-04-14T02:56:41.549Z,6.30
2023-04-14T02:59:08.809Z,11.10
2023-04-14T03:01:36.432Z,6.75
2023-04-14T03:04:03.708Z,9.43
2023-04-14T03:06:31.718Z,5.82
2023-04-14T03:09:00.449Z,6.53
2023-04-14T03:11:43.510Z,4.10
2023-04-14T03:14:11.590Z,9.30
2023-04-14T03:16:39.545Z,6.45
2023-04-14T03:19:08.164Z,8.85
2023-04-14T03:21:35.835Z,7.05
2023-04-14T03:24:04.570Z,8.20
2023-04-14T03:26:42.644Z,11.90
2023-04-14T03:29:10.073Z,12.35
2023-04-14T03:31:37.759Z,14.77
2023-04-14T03:34:05.772Z,7.90
2023-04-14T03:36:33.471Z,10.40
2023-04-14T03:39:01.666Z,9.18
2023-04-14T03:41:39.546Z,9.32
2023-04-14T03:44:07.124Z,7.07
2023-04-14T03:46:34.256Z,7.07
2023-04-14T03:49:06.573Z,12.57
2023-04-14T03:51:34.018Z,5.72
2023-04-14T03:54:02.159Z,8.70
2023-04-14T03:56:35.018Z,5.93
2023-04-14T03:59:03.088Z,14.45
2023-04-14T04:01:30.817Z,12.23
2023-04-14T04:04:02.149Z,6.13
2023-04-14T04:06:29.268Z,21.83
2023-04-14T04:08:56.719Z,11.85
2023-04-14T04:17:09.643Z,7.85
2023-04-14T04:19:37.211Z,10.45
2023-04-14T04:22:04.889Z,18.80
2023-04-14T04:24:33.926Z,6.43
2023-04-14T04:27:01.326Z,9.23
2023-04-14T04:29:28.581Z,11.40
2023-04-14T04:31:56.163Z,9.38
2023-04-14T04:34:23.840Z,6.30
2023-04-14T04:36:51.356Z,8.52
2023-04-14T04:39:18.422Z,8.07
2023-04-14T04:41:46.080Z,5.28
2023-04-14T04:47:23.148Z,10.15
2023-04-14T04:49:50.226Z,9.93
2023-04-14T04:52:17.309Z,10.05
2023-04-14T04:54:45.298Z,11.63
2023-04-14T04:57:12.386Z,6.35
2023-04-14T04:59:39.797Z,7.95
2023-04-14T05:04:46.530Z,10.25
2023-04-14T05:07:13.573Z,8.80
2023-04-14T05:09:40.686Z,9.30
2023-04-14T05:12:07.691Z,5.90
2023-04-14T05:14:34.750Z,14.10
2023-04-14T05:22:41.458Z,11.85
2023-04-14T05:25:08.650Z,10.52
2023-04-14T05:27:35.823Z,10.43
2023-04-14T05:30:02.949Z,13.10
2023-04-14T05:32:30.002Z,10.23
2023-04-14T05:37:38.186Z,11.88
2023-04-14T05:40:05.978Z,14.20
2023-04-14T05:42:33.040Z,11.50
2023-04-14T05:47:54.908Z,20.02
2023-04-14T05:50:26.288Z,10.18
2023-04-14T05:56:11.608Z,10.07
2023-04-14T05:58:38.659Z,7.95
2023-04-14T06:01:07.054Z,11.07
2023-04-14T06:03:35.080Z,7.63
2023-04-14T06:06:04.708Z,9.90
2023-04-14T06:08:31.818Z,7.35
2023-04-14T06:13:32.471Z,11.18
2023-04-14T06:16:01.350Z,11.05
2023-04-14T06:18:28.483Z,9.25
2023-04-14T06:20:55.523Z,13.75
2023-04-14T06:23:22.643Z,5.45
2023-04-14T06:26:02.868Z,10.70
2023-04-14T06:28:29.911Z,8.95
2023-04-14T06:30:57.060Z,12.23
2023-04-14T06:33:24.175Z,10.25
2023-04-14T06:35:51.265Z,11.57
2023-04-14T06:38:18.337Z,6.68
2023-04-14T06:46:24.963Z,12.07
2023-04-14T06:48:52.037Z,6.78
2023-04-14T06:51:19.095Z,12.68
2023-04-14T06:53:46.123Z,9.68
2023-04-14T06:56:13.149Z,8.68
2023-04-14T06:59:05.778Z,9.70
2023-04-14T07:01:32.967Z,11.55
2023-04-14T07:04:00.209Z,8.75
2023-04-14T07:06:27.367Z,8.88
2023-04-14T07:08:55.933Z,11.48
2023-04-14T07:11:23.016Z,10.73
2023-04-14T07:13:53.823Z,13.45
2023-04-14T07:16:20.933Z,16.30
2023-04-14T07:18:48.078Z,10.75
2023-04-14T07:21:15.177Z,9.68
2023-04-14T07:23:42.222Z,12.88
2023-04-14T07:26:09.248Z,9.88
2023-04-14T07:34:20.685Z,10.60
2023-04-14T07:36:47.796Z,9.90
2023-04-14T07:39:14.828Z,9.23
2023-04-14T07:41:41.810Z,17.02
2023-04-14T07:44:08.887Z,9.75
2023-04-14T07:52:10.663Z,7.55
2023-04-14T07:54:37.746Z,9.27
2023-04-14T07:57:04.959Z,5.25
2023-04-14T07:59:32.016Z,11.32
2023-04-14T08:01:59.208Z,8.63
2023-04-14T08:07:39.830Z,10.30
2023-04-14T08:10:07.396Z,14.27
2023-04-14T08:12:35.772Z,8.75
2023-04-14T08:15:09.812Z,13.27
2023-04-14T08:17:37.536Z,9.95
2023-04-14T08:20:04.744Z,8.18
2023-04-14T08:22:38.320Z,9.80
2023-04-14T08:25:05.555Z,7.90
2023-04-14T08:27:32.651Z,6.13
2023-04-14T08:29:59.868Z,14.32
2023-04-14T08:32:28.650Z,9.75
2023-04-14T08:35:39.630Z,5.07
2023-04-14T08:37:43.324Z,7.20
2023-04-14T08:40:11.305Z,8.73
2023-04-14T08:42:38.735Z,6.40
2023-04-14T08:45:06.122Z,10.63
2023-04-14T08:47:35.690Z,6.32
2023-04-14T08:50:08.010Z,10.93
2023-04-14T08:52:36.308Z,5.47
2023-04-14T08:55:04.687Z,6.63
2023-04-14T08:57:32.454Z,13.90
2023-04-14T09:00:00.262Z,9.25
2023-04-14T09:02:28.019Z,6.38
2023-04-14T09:04:57.383Z,7.15
2023-04-14T09:09:56.485Z,4.07
2023-04-14T09:12:23.911Z,5.88
2023-04-14T09:14:51.238Z,8.38
2023-04-14T09:17:18.531Z,6.00
2023-04-14T09:20:35.654Z,9.43
2023-04-14T09:22:35.647Z,9.32
2023-04-14T09:25:07.083Z,8.50
2023-04-14T09:27:52.282Z,10.50
2023-04-14T09:30:19.362Z,4.47
2023-04-14T09:32:46.671Z,5.65
2023-04-14T09:35:14.620Z,8.13
2023-04-14T09:37:45.302Z,7.63
2023-04-14T09:40:19.770Z,8.20
2023-04-14T09:42:47.029Z,10.38
2023-04-14T09:45:14.379Z,7.63
2023-04-14T09:47:41.442Z,5.15
2023-04-14T09:50:11.825Z,8.00
2023-04-14T09:57:51.875Z,5.05
2023-04-14T10:00:21.474Z,8.35
2023-04-14T10:03:01.545Z,6.65
2023-04-14T10:07:56.845Z,10.98
2023-04-14T10:10:23.876Z,3.35
2023-04-14T10:15:39.244Z,8.98
2023-04-14T10:18:06.961Z,8.48
2023-04-14T10:20:35.164Z,7.90
2023-04-14T10:23:02.816Z,6.63
2023-04-14T10:25:31.795Z,4.13
2023-04-14T10:30:43.318Z,7.38
2023-04-14T10:33:10.489Z,3.13
2023-04-14T10:35:44.056Z,4.80
2023-04-14T10:38:12.437Z,6.13
2023-04-14T10:40:52.126Z,5.57
2023-04-14T10:43:19.399Z,4.10
2023-04-14T10:48:36.246Z,3.30
2023-04-14T10:51:05.239Z,5.70
2023-04-14T10:53:58.493Z,4.90
2023-04-14T10:56:26.632Z,6.32
2023-04-14T11:01:31.852Z,3.47
2023-04-14T11:06:36.636Z,7.70
2023-04-14T11:09:22.281Z,4.13
2023-04-14T11:11:49.380Z,6.30
2023-04-14T11:14:16.614Z,4.45
2023-04-14T11:16:54.226Z,4.72
2023-04-14T11:19:30.718Z,6.22
2023-04-14T11:21:57.859Z,6.50
2023-04-14T11:24:26.530Z,4.32
2023-04-14T11:26:57.214Z,7.20
2023-04-14T11:29:24.554Z,6.55
2023-04-14T11:32:01.604Z,7.43
2023-04-14T11:34:28.769Z,6.82
2023-04-14T11:36:56.040Z,5.78
2023-04-14T11:39:23.618Z,3.88
2023-04-14T11:41:51.279Z,2.40
2023-04-14T11:44:19.600Z,4.13
2023-04-14T11:46:46.947Z,5.35
2023-04-14T11:49:13.982Z,3.42
2023-04-14T11:51:41.031Z,7.20
2023-04-14T11:54:08.180Z,2.85
2023-04-14T11:56:35.565Z,3.92
2023-04-14T11:59:03.404Z,2.58
2023-04-14T12:01:32.098Z,4.32
2023-04-14T12:03:59.624Z,3.40
2023-04-14T12:06:27.418Z,2.55
2023-04-14T12:08:55.124Z,5.22
2023-04-14T12:11:23.628Z,2.53
2023-04-14T12:13:52.696Z,3.08
2023-04-14T12:16:19.956Z,1.95
2023-04-14T12:18:47.112Z,3.15
2023-04-14T12:21:20.282Z,2.78
2023-04-14T12:23:50.602Z,6.45
2023-04-14T12:28:45.015Z,5.97
2023-04-14T12:31:12.168Z,3.45
2023-04-14T12:36:14.054Z,4.38
2023-04-14T12:38:41.501Z,4.72
2023-04-14T12:41:08.991Z,4.30
2023-04-14T12:43:37.072Z,5.32
2023-04-14T12:46:04.604Z,4.03
2023-04-14T12:51:12.567Z,4.78
2023-04-14T12:53:40.100Z,5.15
2023-04-14T12:56:22.561Z,4.10
2023-04-14T12:58:51.005Z,8.00
2023-04-14T13:01:20.578Z,4.93
2023-04-14T13:03:52.238Z,4.45
2023-04-14T13:09:02.414Z,6.72
2023-04-14T13:11:31.174Z,6.03
2023-04-14T13:13:58.264Z,4.55
2023-04-14T13:16:26.610Z,4.47
2023-04-14T13:18:54.885Z,4.88
2023-04-14T13:23:58.564Z,3.88
2023-04-14T13:26:25.626Z,4.38
2023-04-14T13:28:52.661Z,8.10
2023-04-14T13:31:19.682Z,7.30
2023-04-14T13:33:46.726Z,4.03
2023-04-14T13:36:29.070Z,6.72
2023-04-14T13:38:56.508Z,4.68
2023-04-14T13:41:24.491Z,3.83
2023-04-14T13:43:51.498Z,3.55
2023-04-14T13:46:19.304Z,5.10
2023-04-14T13:53:56.141Z,5.28
2023-04-14T13:56:25.771Z,3.60
2023-04-14T13:58:53.050Z,3.47
2023-04-14T14:01:20.436Z,2.88
2023-04-14T14:03:48.331Z,5.10
2023-04-14T14:11:48.701Z,3.80
2023-04-14T14:14:15.817Z,2.53
2023-04-14T14:16:43.011Z,5.45
2023-04-14T14:19:15.063Z,1.23
2023-04-14T14:21:44.548Z,2.20
2023-04-14T14:24:18.541Z,3.03
2023-04-14T14:26:45.568Z,1.52
2023-04-14T14:29:12.832Z,3.60
2023-04-14T14:31:40.102Z,4.40
2023-04-14T14:34:07.894Z,5.47
2023-04-14T14:36:35.278Z,2.33
2023-04-14T14:41:42.529Z,4.13
2023-04-14T14:44:09.568Z,2.97
2023-04-14T14:46:36.730Z,2.78
2023-04-14T14:49:04.159Z,1.65
2023-04-14T14:51:31.720Z,3.65
2023-04-14T14:59:37.994Z,3.28
2023-04-14T15:02:05.085Z,4.22
2023-04-14T15:04:32.338Z,3.28
2023-04-14T15:06:59.383Z,3.38
2023-04-14T15:09:26.390Z,2.50
2023-04-14T15:12:06.480Z,2.03
2023-04-14T15:14:33.546Z,3.90
2023-04-14T15:17:00.762Z,3.45
2023-04-14T15:19:27.943Z,3.00
2023-04-14T15:21:54.987Z,1.35
2023-04-14T15:24:22.099Z,2.60
2023-04-14T15:29:31.925Z,3.65
2023-04-14T15:31:58.993Z,2.92
2023-04-14T15:34:27.091Z,2.78
2023-04-14T15:36:54.143Z,3.78
2023-04-14T15:39:21.362Z,3.58
2023-04-14T15:42:01.514Z,2.40
2023-04-14T15:46:55.638Z,6.68
2023-04-14T15:49:23.082Z,3.30
2023-04-14T15:51:50.631Z,3.70
2023-04-14T15:54:17.703Z,3.22
2023-04-14T15:59:26.579Z,2.83
2023-04-14T16:01:53.863Z,2.42
2023-04-14T16:04:21.139Z,1.60
2023-04-14T16:06:48.255Z,2.63
2023-04-14T16:09:15.289Z,3.90
2023-04-14T16:11:42.336Z,3.15
2023-04-14T16:14:09.561Z,4.85
2023-04-14T16:16:36.682Z,1.65
2023-04-14T16:19:03.844Z,2.90
2023-04-14T16:21:31.091Z,2.40
2023-04-14T16:23:58.118Z,2.42
2023-04-14T16:26:25.125Z,1.65
2023-04-14T16:28:52.564Z,1.80
2023-04-14T16:31:19.701Z,2.65
2023-04-14T16:33:46.877Z,2.78
2023-04-14T16:36:13.908Z,3.40
2023-04-14T16:38:40.909Z,3.95
2023-04-14T16:41:08.228Z,3.15
2023-04-14T16:43:35.307Z,2.63
2023-04-14T16:46:03.355Z,1.23
2023-04-14T16:48:30.807Z,1.67
2023-04-14T16:50:57.900Z,2.70
2023-04-14T16:53:25.142Z,1.48
2023-04-14T16:55:53.669Z,1.38
2023-04-14T16:58:20.758Z,3.05
2023-04-14T17:00:47.761Z,2.13
2023-04-14T17:03:14.958Z,2.33
2023-04-14T17:05:43.407Z,3.30
2023-04-14T17:08:12.170Z,3.00
2023-04-14T17:10:42.390Z,2.35
2023-04-14T17:13:09.424Z,2.22
2023-04-14T17:15:37.373Z,4.20
2023-04-14T17:18:04.568Z,2.25
2023-04-14T17:20:40.359Z,7.97
2023-04-14T17:23:08.406Z,4.43
2023-04-14T17:25:39.423Z,4.00
2023-04-14T17:28:06.520Z,2.40
2023-04-14T17:30:34.831Z,2.30
2023-04-14T17:33:03.656Z,2.40
2023-04-14T17:35:37.398Z,2.70
2023-04-14T17:38:04.497Z,2.35
2023-04-14T17:40:31.618Z,5.75
2023-04-14T17:42:58.942Z,5.03
2023-04-14T17:45:26.685Z,3.45
2023-04-14T17:47:53.981Z,2.95
2023-04-14T17:50:33.414Z,1.67
2023-04-14T17:53:00.449Z,2.53
2023-04-14T17:55:28.294Z,3.20
2023-04-14T17:57:56.247Z,1.77
2023-04-14T18:00:23.568Z,2.13
2023-04-14T18:02:50.719Z,2.65
2023-04-14T18:07:57.584Z,7.30
2023-04-14T18:10:24.816Z,4.18
2023-04-14T18:12:52.064Z,2.60
2023-04-14T18:15:19.676Z,3.60
2023-04-14T18:17:46.967Z,6.25
2023-04-14T18:22:54.648Z,4.82
2023-04-14T18:25:21.695Z,2.78
2023-04-14T18:30:18.730Z,4.72
2023-04-14T18:32:46.263Z,4.93
2023-04-14T18:37:52.134Z,3.85
2023-04-14T18:40:20.321Z,2.13
2023-04-14T18:42:48.902Z,5.97
2023-04-14T18:45:16.024Z,3.10
2023-04-14T18:47:43.252Z,5.75
2023-04-14T18:52:47.654Z,6.75
2023-04-14T18:55:14.799Z,8.00
2023-04-14T18:57:42.781Z,4.30
2023-04-14T19:00:10.119Z,8.85
2023-04-14T19:02:37.458Z,6.22
2023-04-14T19:07:44.592Z,4.38
2023-04-14T19:10:11.618Z,3.33
2023-04-14T19:12:40.525Z,6.72
2023-04-14T19:15:07.894Z,6.88
2023-04-14T19:17:34.993Z,4.65
2023-04-14T19:22:41.240Z,6.47
2023-04-14T19:25:08.590Z,8.95
2023-04-14T19:27:38.443Z,7.55
2023-04-14T19:30:06.777Z,11.40
2023-04-14T19:32:34.269Z,5.93
2023-04-14T19:37:38.520Z,7.15
2023-04-14T19:40:06.870Z,7.95
2023-04-14T19:42:34.113Z,6.80
2023-04-14T19:45:01.260Z,4.55
2023-04-14T19:47:28.573Z,7.13
2023-04-14T19:52:33.557Z,7.68
2023-04-14T19:55:01.357Z,11.38
2023-04-14T19:57:28.626Z,7.63
2023-04-14T19:59:55.595Z,5.85
2023-04-14T20:10:31.777Z,5.25
2023-04-14T20:12:58.906Z,6.35
2023-04-14T20:15:26.175Z,5.50
2023-04-14T20:17:53.251Z,5.88
2023-04-14T20:25:38.600Z,4.43
2023-04-14T20:28:06.131Z,5.72
2023-04-14T20:30:33.198Z,7.50
2023-04-14T20:33:01.149Z,8.60
2023-04-14T20:35:28.189Z,12.40
2023-04-14T20:40:30.104Z,9.23
2023-04-14T20:45:44.348Z,14.45
2023-04-14T20:50:58.022Z,10.18
2023-04-14T20:53:27.024Z,8.40
2023-04-14T20:58:29.431Z,7.35
2023-04-14T21:08:53.376Z,9.27
2023-04-14T21:11:20.394Z,10.02
2023-04-14T21:15:26.615Z,9.23
2023-04-14T21:22:15.839Z,7.90
2023-04-14T21:24:48.191Z,11.02
2023-04-14T21:27:16.665Z,9.10
2023-04-14T21:29:44.061Z,8.43
2023-04-14T21:32:11.355Z,9.40
2023-04-14T21:34:46.124Z,12.10
2023-04-14T21:37:16.184Z,9.02
2023-04-14T21:39:43.194Z,7.38
2023-04-14T21:42:10.656Z,13.05
2023-04-14T21:44:37.742Z,8.25
2023-04-14T21:47:04.842Z,8.75
2023-04-14T21:52:41.236Z,13.98
2023-04-14T21:55:09.151Z,10.25
2023-04-14T21:57:48.652Z,10.35
2023-04-14T22:02:45.662Z,9.50
2023-04-14T22:05:13.377Z,13.40
2023-04-14T22:07:41.140Z,10.43
2023-04-14T22:10:08.384Z,10.10
2023-04-14T22:25:11.636Z,9.60
2023-04-14T22:38:36.154Z,10.00
2023-04-14T22:41:03.274Z,14.20
2023-04-14T22:46:01.225Z,10.50
2023-04-14T22:48:28.266Z,9.85
2023-04-14T22:56:11.477Z,8.88
2023-04-14T22:58:41.599Z,8.40
2023-04-14T23:03:57.762Z,9.95
2023-04-14T23:09:08.154Z,9.50
2023-04-14T23:11:35.263Z,11.18
2023-04-14T23:14:02.771Z,13.20
2023-04-14T23:16:29.988Z,11.07
2023-04-14T23:18:57.468Z,10.00
2023-04-14T23:21:25.040Z,14.35
2023-04-14T23:23:52.467Z,7.20
2023-04-14T23:39:51.240Z,14.18
2023-04-14T23:42:18.290Z,10.73
2023-04-14T23:44:45.759Z,13.20
2023-04-14T23:55:15.119Z,12.00
2023-04-14T23:57:42.538Z,8.20
